PIA - General Downing Peoria Intl

Pirep is a free, collaborative database of all public and private airports located within the United States. All pilots are welcome to contribute, edit, and improve any airport they have local knowledge about, no registration required.
Uploaded photos will be licensed under a CC BY-SA 4.0 license. Please only upload photos you have the rights to use.
Tags
Public
METAR / TAF
Flying Clubs
Edit Tags
Food
Camping
Lodging
Car Rental
Bicycles
Swimming
Golfing
Fishing
Hot Springs
Museum
Airpark
Upcoming Events
No upcoming events. Is anything happening here soon?
*
*
*

Where exactly on/near the airport is this event taking place?

Is there a webpage with more information for this event?

Who should be contacted for more information?

What is this event all about?

Repeat every
Description
Transient Parking
Fuel Location
Landing & Tie-down Fees
Crew Car Availability
Flying Clubs
Last updated: 2024-03-06 22:34:58 CST
WiFi Access
Airport Statistics
Location: Peoria, IL
Elevation: 660ft
Sectional: Chicago
Activation date: Apr 1940
Fuel: 100LL, A, A++ (prices)
Runway 13/31: 10,104ft
Runway 04/22: 8,004ft
Access: Open to the public
Current Weather — VFR
  • Weather data is strictly informational and not for flight planning purposes.
  • METAR
    2024-06-17 06:54:00 CDT
    Ceiling Wind Temperature Dewpoint Weather Visbility
    Sky clear 210° @ 5kt 78°F 73°F N/A 10SM
    Raw: KPIA 171154Z 21005KT 10SM CLR 26/23 A2994 RMK AO2 SLP133 T02560228 10267 20244 53017 $
  • TAF
    2024-06-17 07:00:00 CDT – 2024-06-17 10:00:00 CDT
    Ceiling Wind Weather Visbility
    Sky clear 190° @ 10kt N/A 6SM
    Clouds: Few @ 25,000ft
    Raw: KPIA 171120Z 1712/1812 19010KT P6SM FEW250 FM171500 19014G22KT P6SM SCT050 SCT250 FM180300 18012G18KT P6SM SCT050 BKN140 FM180900 18010KT P6SM BKN080
  • TAF
    2024-06-17 10:00:00 CDT – 2024-06-17 22:00:00 CDT
    Ceiling Wind Weather Visbility
    Sky clear 190° @ 14kt, gusts 22kt N/A 6SM
    Clouds: Scattered @ 5,000ft, Scattered @ 25,000ft
    Raw: KPIA 171120Z 1712/1812 19010KT P6SM FEW250 FM171500 19014G22KT P6SM SCT050 SCT250 FM180300 18012G18KT P6SM SCT050 BKN140 FM180900 18010KT P6SM BKN080
  • TAF
    2024-06-17 22:00:00 CDT – 2024-06-18 04:00:00 CDT
    Ceiling Wind Weather Visbility
    14,000ft 180° @ 12kt, gusts 18kt N/A 6SM
    Clouds: Scattered @ 5,000ft, Broken @ 14,000ft
    Raw: KPIA 171120Z 1712/1812 19010KT P6SM FEW250 FM171500 19014G22KT P6SM SCT050 SCT250 FM180300 18012G18KT P6SM SCT050 BKN140 FM180900 18010KT P6SM BKN080
  • TAF
    2024-06-18 04:00:00 CDT – 2024-06-18 07:00:00 CDT
    Ceiling Wind Weather Visbility
    8,000ft 180° @ 10kt N/A 6SM
    Clouds: Broken @ 8,000ft
    Raw: KPIA 171120Z 1712/1812 19010KT P6SM FEW250 FM171500 19014G22KT P6SM SCT050 SCT250 FM180300 18012G18KT P6SM SCT050 BKN140 FM180900 18010KT P6SM BKN080
Click/tap to add an annotation marker to the map
Airport Webcams
No webcams added yet.
Direct links to live image URLs will be displayed inline on this page. URLs to separate webpages will be linked to.
URL:
Direct links to live image URLs will be displayed inline on this page. URLs to separate webpages will be linked to.
URL:
Remarks
  • Lgtd pline rwy 04 apch.
  • Birds on and invof arpt.
  • Portion of twy a-5 not visible from twr due to a bldg.
  • Ang: military aircraft call 'torch ops' 20 min prior to ldg.
  • Airport operations 309-697-8272 x 110
Comments
Leave a comment What was your experience like at this airport?